Strona główna
METAR-TAF:

METAR-TAF

Lotnisko :

Port lotniczy São Pedro

São Vicente, Republika Zielonego Przylądka

Szerokość geograficzna: 16-49-59N, Długość geograficzna: 25-03-25W, wysokość: 20 m

Aktualna obserwacja pogody

Raport powstał 16 minut temu, godzina 18:00 UTC
Wiatr 9 kt od południowy zachód, zmienny między południowo-południowy zachód i zachód
Temperatura 27°C
Wilgotność 62%
Ciśnienie 1016 hPa
Widzialność 10 km lub więcej
Mało chmury na wysokości 2200 ft

METAR: GVSV 151800Z 23009KT 200V260 9999 FEW022 27/19 Q1016 NOSIG

czas: 17:16 (18:16 UTC)

Prognoza

Raport powstał 1 godzina i 16 minut temu, godzina 17:00 UTC
Prognoza ważna od 15 godzina 18 UTC do 16 godzina 24 UTC
Wiatr 16 kt od wschodnio-północny wschód
Widzialność 10 km lub więcej
Rozproszone chmury na wysokości 2200 ft

TAF: GVSV 151700Z 1518/1624 06016KT 9999 SCT022

Obserwacja i prognoza pogody dla ponad 4000 lotnisk (raport METAR i TAF).

Dostępne stacje oznaczono żółtymi i czerwonymi punktami na mapie.

Najedź kursorem aby zobaczyć nazwę stacji.

Kliknij aby zobaczyć obserwacje i prognozy pogody.

Aby zmienić mapę: kliknij na zielony przycisk z czarnym krzyżykiem, aby powiększyć; na zielony przycisk z myślnikiem, aby pomniejszyć; na zielone strzałki, aby przejść do map sąsiednich.


METAR-TAF: